Time;durP1;ratioP1;P1;durP2;ratioP2;P2;SDS_P1;SDS_P2;PMS_P1;PMS_P2;Temp;Humidity;BMP_temperature;BMP_pressure;BME280_temperature;BME280_humidity;BME280_pressure;Samples;Min_cycle;Max_cycle;Signal;HPM_P1;HPM_P2
2023/01/18 00:00:39;;;;;;;3.20;0.70;;;32.70;99.90;;;;;;4976869;28;20175;-66
2023/01/18 00:03:11;;;;;;;7.82;1.08;;;32.40;99.90;;;;;;4976866;28;20184;-75
2023/01/18 00:05:42;;;;;;;8.30;1.30;;;32.10;99.90;;;;;;4977171;28;20191;-66
2023/01/18 00:08:18;;;;;;;9.87;1.30;;;31.70;99.90;;;;;;4976920;28;20179;-69
2023/01/18 00:10:45;;;;;;;59.22;4.57;;;31.90;99.90;;;;;;4976588;28;20187;-65
2023/01/18 00:13:13;;;;;;;6.40;1.33;;;32.70;99.90;;;;;;4976586;28;20186;-67
2023/01/18 00:15:40;;;;;;;11.65;1.48;;;32.20;99.90;;;;;;4976484;28;20180;-71
2023/01/18 00:18:08;;;;;;;20.40;2.17;;;31.50;99.90;;;;;;4976556;28;20187;-65
2023/01/18 00:20:35;;;;;;;13.88;1.70;;;30.80;99.90;;;;;;4975568;28;20233;-70
2023/01/18 00:23:03;;;;;;;6.23;0.97;;;30.40;99.90;;;;;;4957891;28;20218;-69
2023/01/18 00:25:30;;;;;;;12.00;1.53;;;30.60;99.90;;;;;;4975087;28;20183;-70
2023/01/18 00:27:58;;;;;;;9.60;1.50;;;30.40;99.90;;;;;;4971557;28;20188;-69
2023/01/18 00:30:28;;;;;;;8.63;1.10;;;30.90;99.90;;;;;;4972963;28;20289;-68
2023/01/18 00:32:57;;;;;;;6.20;1.50;;;31.20;99.90;;;;;;4987745;28;20592;-72
2023/01/18 00:35:25;;;;;;;4.87;0.70;;;31.30;99.90;;;;;;4994052;28;20181;-70
2023/01/18 00:37:53;;;;;;;6.00;1.03;;;32.00;99.90;;;;;;4994485;28;20892;-72
2023/01/18 00:40:22;;;;;;;13.87;1.53;;;32.30;99.90;;;;;;4981457;28;20190;-71
2023/01/18 00:45:35;;;;;;;11.87;2.20;;;33.20;99.90;;;;;;4974856;28;20194;-71
2023/01/18 00:48:02;;;;;;;3.15;0.77;;;33.70;99.90;;;;;;4977339;28;20179;-71
2023/01/18 00:50:30;;;;;;;11.98;2.13;;;33.90;99.90;;;;;;4976899;28;20226;-70
2023/01/18 00:52:58;;;;;;;3.95;0.82;;;34.20;99.90;;;;;;4983590;28;20188;-68
2023/01/18 00:55:26;;;;;;;12.13;1.63;;;34.20;99.90;;;;;;4974374;28;20663;-68
2023/01/18 00:57:54;;;;;;;3.67;0.80;;;34.00;99.90;;;;;;4974680;28;20564;-72
2023/01/18 01:00:22;;;;;;;6.28;0.70;;;34.20;99.90;;;;;;4974228;28;20642;-69
2023/01/18 01:02:50;;;;;;;8.85;0.80;;;34.40;99.90;;;;;;4973270;28;20175;-70
2023/01/18 01:08:16;;;;;;;7.22;0.80;;;34.30;99.90;;;;;;4976997;28;20715;-69
2023/01/18 01:10:51;;;;;;;1.98;0.65;;;34.50;99.90;;;;;;4961809;28;20183;-69
2023/01/18 01:27:12;;;;;;;3.90;1.00;;;35.20;99.90;;;;;;4974056;28;20190;-68
2023/01/18 01:29:40;;;;;;;7.28;0.98;;;35.30;99.90;;;;;;4974387;28;20661;-70
2023/01/18 01:32:07;;;;;;;6.50;1.15;;;35.10;99.90;;;;;;4974541;28;20202;-72
2023/01/18 01:34:35;;;;;;;7.30;0.52;;;35.70;95.40;;;;;;4973643;28;20262;-68
2023/01/18 01:37:03;;;;;;;1.83;0.52;;;35.80;94.80;;;;;;4975387;28;20537;-69
2023/01/18 01:39:30;;;;;;;2.28;0.68;;;36.40;91.20;;;;;;4975281;28;20186;-67
2023/01/18 01:41:58;;;;;;;7.57;1.25;;;36.40;90.00;;;;;;4974803;28;20179;-68
2023/01/18 01:44:28;;;;;;;4.85;0.77;;;35.70;92.80;;;;;;4974976;28;20179;-68
2023/01/18 01:47:21;;;;;;;2.08;0.70;;;35.40;88.80;;;;;;4975652;28;20261;-68
2023/01/18 01:49:53;;;;;;;5.15;0.75;;;35.30;91.20;;;;;;4957610;28;20680;-67
2023/01/18 01:52:31;;;;;;;2.22;0.80;;;35.50;92.10;;;;;;4974882;28;20229;-74
2023/01/18 01:55:33;;;;;;;5.88;0.70;;;36.20;89.90;;;;;;4975596;28;20641;-69
2023/01/18 01:58:10;;;;;;;12.02;1.00;;;36.30;90.90;;;;;;4922049;28;20248;-75
2023/01/18 02:00:38;;;;;;;1.42;0.60;;;36.20;86.10;;;;;;4974903;28;20175;-77
2023/01/18 02:03:11;;;;;;;4.22;0.60;;;36.40;83.80;;;;;;4974663;28;20190;-70
2023/01/18 02:06:01;;;;;;;2.85;0.70;;;36.20;80.00;;;;;;4974869;28;20206;-70
2023/01/18 02:08:28;;;;;;;1.35;0.70;;;36.10;77.70;;;;;;4974818;28;20206;-69
2023/01/18 02:10:56;;;;;;;49.28;2.90;;;36.20;74.90;;;;;;4974506;28;20267;-76
2023/01/18 02:13:25;;;;;;;2.15;1.00;;;36.00;74.30;;;;;;4974715;28;20238;-75
2023/01/18 02:15:52;;;;;;;19.75;1.73;;;35.40;73.30;;;;;;4974581;28;20534;-68
2023/01/18 02:18:33;;;;;;;9.00;1.65;;;35.50;70.90;;;;;;4974850;28;20188;-77
2023/01/18 02:21:18;;;;;;;4.90;0.80;;;35.90;69.50;;;;;;4974465;28;20176;-77
2023/01/18 02:24:07;;;;;;;2.65;0.77;;;36.00;63.80;;;;;;4974370;28;20175;-68
2023/01/18 02:26:43;;;;;;;26.98;2.60;;;36.20;70.00;;;;;;4974771;28;20176;-68
2023/01/18 02:29:17;;;;;;;4.03;0.80;;;35.70;59.80;;;;;;4974533;28;20222;-70
2023/01/18 02:32:10;;;;;;;3.97;0.73;;;35.80;57.00;;;;;;4974221;28;20266;-68
2023/01/18 02:34:49;;;;;;;25.95;2.90;;;35.60;53.90;;;;;;4973906;28;20187;-68
2023/01/18 02:37:52;;;;;;;8.00;1.50;;;36.10;53.70;;;;;;4957048;28;20229;-69
2023/01/18 02:40:39;;;;;;;18.58;1.52;;;36.20;53.90;;;;;;4974299;28;20171;-71
2023/01/18 02:48:43;;;;;;;2.42;1.25;;;36.50;61.20;;;;;;4974694;28;20230;-68
2023/01/18 02:51:11;;;;;;;4.00;0.80;;;36.70;58.60;;;;;;4973921;28;20209;-69
2023/01/18 02:53:41;;;;;;;1.13;0.63;;;36.80;62.90;;;;;;4975655;28;20266;-67
2023/01/18 02:56:20;;;;;;;1.52;0.70;;;37.00;57.10;;;;;;4978254;28;20238;-68
2023/01/18 02:58:50;;;;;;;2.70;0.90;;;37.00;57.60;;;;;;4977904;28;20179;-68
2023/01/18 03:01:35;;;;;;;1.95;1.00;;;37.00;65.30;;;;;;4978078;28;20175;-67
2023/01/18 03:04:16;;;;;;;5.88;0.85;;;37.20;57.10;;;;;;4978134;28;20663;-69
2023/01/18 03:06:48;;;;;;;3.83;0.70;;;37.10;52.60;;;;;;4960599;28;20613;-68
2023/01/18 03:09:20;;;;;;;2.17;0.82;;;37.00;54.00;;;;;;4977721;28;20286;-68
2023/01/18 03:11:59;;;;;;;5.82;1.00;;;37.10;55.20;;;;;;4977709;28;20179;-68
2023/01/18 03:14:49;;;;;;;1.92;1.02;;;37.30;54.20;;;;;;4977985;28;20182;-75
2023/01/18 03:17:38;;;;;;;5.50;1.02;;;37.20;51.90;;;;;;4977486;28;20286;-68
2023/01/18 03:20:10;;;;;;;4.13;0.88;;;37.40;51.50;;;;;;4978024;28;20176;-68
2023/01/18 03:25:40;;;;;;;1.88;1.17;;;37.10;52.70;;;;;;4977837;28;20314;-67
2023/01/18 03:34:36;;;;;;;5.72;1.50;;;36.60;52.20;;;;;;4977543;28;20182;-77
2023/01/18 03:37:19;;;;;;;1.85;1.00;;;36.60;54.90;;;;;;4977699;28;20175;-67
2023/01/18 03:43:35;;;;;;;1.45;1.10;;;36.90;54.40;;;;;;4977077;28;20241;-78
2023/01/18 03:46:03;;;;;;;13.57;1.83;;;37.60;57.20;;;;;;4977305;28;20262;-67
2023/01/18 03:48:31;;;;;;;2.95;1.70;;;37.70;54.50;;;;;;4977135;28;20186;-68
2023/01/18 03:51:15;;;;;;;8.70;1.40;;;37.20;54.40;;;;;;4959604;28;20664;-68
2023/01/18 03:53:58;;;;;;;4.80;1.20;;;37.40;54.40;;;;;;4977372;28;20175;-70
2023/01/18 03:56:47;;;;;;;21.35;1.95;;;37.30;54.00;;;;;;4977364;28;20262;-74
2023/01/18 03:59:14;;;;;;;4.07;1.50;;;37.40;56.20;;;;;;4977335;28;20175;-74
2023/01/18 04:01:43;;;;;;;10.63;2.78;;;37.60;56.10;;;;;;4959338;28;20212;-79
2023/01/18 04:04:11;;;;;;;5.22;1.20;;;38.00;54.60;;;;;;4976710;28;20246;-69
2023/01/18 04:06:38;;;;;;;4.82;1.05;;;38.20;57.90;;;;;;4976681;28;20258;-68
2023/01/18 04:09:07;;;;;;;20.15;2.08;;;38.90;64.50;;;;;;4976581;28;20630;-71
2023/01/18 04:11:34;;;;;;;3.65;1.42;;;38.70;60.70;;;;;;4976504;28;20656;-69
2023/01/18 04:14:02;;;;;;;3.60;0.90;;;38.50;61.10;;;;;;4976660;28;20648;-78
2023/01/18 04:16:29;;;;;;;1.95;1.10;;;38.00;58.90;;;;;;4976448;28;20219;-78
2023/01/18 04:18:56;;;;;;;3.05;1.20;;;37.60;58.60;;;;;;4976628;28;20592;-68
2023/01/18 04:24:49;;;;;;;4.68;1.30;;;37.40;62.70;;;;;;4976277;28;20534;-73
2023/01/18 04:27:17;;;;;;;4.13;1.23;;;37.60;61.00;;;;;;4976561;28;20187;-69
2023/01/18 04:29:44;;;;;;;6.28;1.38;;;37.50;62.40;;;;;;4976486;28;20243;-69
2023/01/18 04:32:11;;;;;;;8.52;1.77;;;37.70;59.20;;;;;;4976525;28;20233;-67
2023/01/18 04:34:39;;;;;;;4.40;2.08;;;37.60;59.80;;;;;;4976249;28;20218;-68
2023/01/18 04:37:06;;;;;;;2.47;1.20;;;37.30;60.00;;;;;;4976789;28;20179;-76
2023/01/18 04:39:34;;;;;;;2.25;1.40;;;37.10;59.40;;;;;;4976136;28;20186;-78
2023/01/18 04:42:01;;;;;;;8.45;1.70;;;36.80;60.00;;;;;;4975843;28;20172;-76
2023/01/18 04:44:28;;;;;;;9.10;1.90;;;36.50;62.30;;;;;;4975960;28;20179;-67
2023/01/18 04:46:56;;;;;;;3.53;1.17;;;36.30;60.20;;;;;;4975821;28;20219;-67
2023/01/18 04:49:23;;;;;;;6.32;1.75;;;36.70;66.30;;;;;;4975649;28;20225;-68
2023/01/18 04:51:50;;;;;;;4.18;1.15;;;36.40;93.30;;;;;;4976000;28;20171;-68
2023/01/18 04:54:18;;;;;;;3.55;1.60;;;36.20;98.00;;;;;;4975837;28;20182;-67
2023/01/18 04:56:45;;;;;;;6.03;1.48;;;36.20;99.90;;;;;;4975989;28;20250;-68
2023/01/18 04:59:16;;;;;;;5.80;1.67;;;36.00;99.90;;;;;;4958728;28;20199;-75
2023/01/18 05:01:43;;;;;;;3.80;1.25;;;36.10;99.90;;;;;;4975785;28;20175;-77
2023/01/18 05:04:10;;;;;;;5.85;1.65;;;36.60;99.90;;;;;;4975486;28;20178;-73
2023/01/18 05:06:38;;;;;;;8.52;1.50;;;37.10;99.90;;;;;;4975756;28;20262;-68
2023/01/18 05:09:05;;;;;;;4.30;1.40;;;36.80;99.90;;;;;;4975452;28;20206;-67
2023/01/18 05:11:33;;;;;;;5.50;1.65;;;36.70;99.90;;;;;;4975442;28;20270;-67
2023/01/18 05:14:00;;;;;;;10.98;1.75;;;36.80;99.90;;;;;;4975464;28;20608;-66
2023/01/18 05:16:28;;;;;;;4.90;1.55;;;37.20;99.90;;;;;;4974698;28;20697;-67
2023/01/18 05:18:56;;;;;;;7.85;1.65;;;37.50;99.90;;;;;;4975723;28;20183;-67
2023/01/18 05:21:24;;;;;;;5.68;1.80;;;37.40;99.90;;;;;;4975372;28;20179;-76
2023/01/18 05:23:53;;;;;;;6.28;1.67;;;36.90;99.90;;;;;;4975463;28;20545;-68
2023/01/18 05:26:23;;;;;;;7.63;1.52;;;36.80;99.90;;;;;;4975544;28;20172;-76
2023/01/18 05:28:55;;;;;;;5.85;1.48;;;36.70;99.90;;;;;;4975611;28;20340;-66
2023/01/18 05:31:23;;;;;;;6.68;1.20;;;36.50;99.90;;;;;;4975395;28;20645;-68
2023/01/18 05:33:50;;;;;;;8.60;1.98;;;35.70;99.90;;;;;;4975151;28;20186;-66
2023/01/18 05:36:18;;;;;;;4.63;1.88;;;35.20;99.90;;;;;;4975302;28;20175;-67
2023/01/18 05:38:46;;;;;;;5.15;1.40;;;34.80;99.90;;;;;;4974966;28;20253;-66
2023/01/18 05:41:14;;;;;;;6.88;1.50;;;34.50;99.90;;;;;;4975155;28;20179;-68
2023/01/18 05:43:41;;;;;;;5.82;1.50;;;34.10;99.90;;;;;;4976178;28;20564;-68
2023/01/18 05:46:08;;;;;;;9.82;1.80;;;33.70;99.90;;;;;;4974805;28;20207;-68
2023/01/18 05:48:36;;;;;;;6.93;1.90;;;33.40;99.90;;;;;;4975001;28;20206;-67
2023/01/18 05:51:08;;;;;;;5.43;1.63;;;33.40;99.90;;;;;;4974669;28;20179;-68
2023/01/18 05:53:36;;;;;;;10.45;1.88;;;33.30;99.90;;;;;;4975052;28;20210;-69
2023/01/18 05:56:05;;;;;;;7.78;1.85;;;33.30;99.90;;;;;;4974739;28;20199;-68
2023/01/18 05:58:34;;;;;;;6.57;1.80;;;33.30;99.90;;;;;;4974707;28;20198;-71
2023/01/18 06:01:01;;;;;;;5.15;1.75;;;33.30;99.90;;;;;;4974473;28;20606;-68
2023/01/18 06:03:29;;;;;;;10.43;2.05;;;33.20;99.90;;;;;;4974576;28;20183;-66
2023/01/18 06:05:58;;;;;;;9.77;1.83;;;33.00;99.90;;;;;;4974228;28;20545;-67
2023/01/18 06:08:25;;;;;;;8.23;2.45;;;32.80;99.90;;;;;;4973986;28;20246;-67
2023/01/18 06:10:58;;;;;;;10.50;1.67;;;32.50;99.90;;;;;;4974225;28;20207;-67
2023/01/18 06:13:28;;;;;;;7.32;1.80;;;32.40;99.90;;;;;;4974340;28;20254;-66
2023/01/18 06:15:57;;;;;;;8.30;2.13;;;32.40;99.90;;;;;;4974424;28;20265;-68
2023/01/18 06:18:27;;;;;;;7.25;1.73;;;32.30;99.90;;;;;;4974332;28;20194;-67
2023/01/18 06:20:58;;;;;;;6.68;1.77;;;32.10;99.90;;;;;;4974302;28;20517;-73
2023/01/18 06:23:26;;;;;;;6.40;1.83;;;32.00;99.90;;;;;;4974332;28;20225;-69
2023/01/18 06:25:54;;;;;;;10.15;1.90;;;31.80;99.90;;;;;;4974204;28;20171;-67
2023/01/18 06:28:21;;;;;;;11.20;2.83;;;31.60;99.90;;;;;;4973270;28;20183;-67
2023/01/18 06:30:53;;;;;;;10.30;2.20;;;31.40;99.90;;;;;;4974187;28;20183;-67
2023/01/18 06:33:21;;;;;;;8.20;2.10;;;31.20;99.90;;;;;;4974370;28;20178;-67
2023/01/18 06:35:49;;;;;;;8.30;2.43;;;31.10;99.90;;;;;;4974142;28;20184;-67
2023/01/18 06:38:16;;;;;;;11.80;1.97;;;31.00;99.90;;;;;;4974162;28;20178;-68
2023/01/18 06:40:44;;;;;;;28.02;2.83;;;30.90;99.90;;;;;;4974044;28;20179;-67
2023/01/18 06:43:12;;;;;;;7.63;1.97;;;30.70;99.90;;;;;;4974166;28;20171;-67
2023/01/18 06:45:40;;;;;;;9.67;1.67;;;30.60;99.90;;;;;;4973844;28;20573;-67
2023/01/18 06:48:07;;;;;;;8.73;2.53;;;30.50;99.90;;;;;;4973917;28;20183;-67
2023/01/18 06:50:35;;;;;;;13.23;2.47;;;30.30;99.90;;;;;;4973785;28;20299;-67
2023/01/18 06:53:02;;;;;;;14.50;2.07;;;30.10;99.90;;;;;;4974091;28;20172;-68
2023/01/18 06:55:30;;;;;;;9.20;1.97;;;30.00;99.90;;;;;;4973896;28;20179;-67
2023/01/18 06:57:57;;;;;;;13.27;2.50;;;30.00;99.90;;;;;;4974359;28;20187;-70
2023/01/18 07:00:24;;;;;;;9.80;2.27;;;29.90;99.90;;;;;;4973692;28;20642;-68
2023/01/18 07:02:52;;;;;;;6.87;1.87;;;29.80;99.90;;;;;;4973956;28;20175;-68
2023/01/18 07:05:20;;;;;;;8.70;2.40;;;29.70;99.90;;;;;;4973744;28;20182;-67
2023/01/18 07:07:47;;;;;;;5.27;1.63;;;29.60;99.90;;;;;;4973683;28;20190;-68
2023/01/18 07:10:15;;;;;;;8.43;2.20;;;29.60;99.90;;;;;;4973979;28;20246;-68
2023/01/18 07:12:47;;;;;;;13.50;2.60;;;29.50;99.90;;;;;;4973890;28;20258;-68
2023/01/18 07:15:16;;;;;;;12.77;2.70;;;29.20;99.90;;;;;;4973893;28;20266;-67
2023/01/18 07:17:44;;;;;;;9.30;1.97;;;29.20;99.90;;;;;;4973677;28;20237;-67
2023/01/18 07:20:14;;;;;;;12.10;2.27;;;29.20;99.90;;;;;;4973599;28;20175;-67
2023/01/18 07:22:42;;;;;;;9.43;2.10;;;29.30;99.90;;;;;;4973608;28;20203;-68
2023/01/18 07:25:12;;;;;;;14.87;2.27;;;29.40;99.90;;;;;;4973643;28;20266;-67
2023/01/18 07:27:42;;;;;;;11.80;2.50;;;29.40;99.90;;;;;;4973484;28;20191;-68
2023/01/18 07:30:13;;;;;;;8.10;2.03;;;29.50;99.90;;;;;;4973699;28;20223;-68
2023/01/18 07:32:49;;;;;;;10.30;2.43;;;29.60;99.90;;;;;;4973770;28;20179;-67
2023/01/18 07:35:21;;;;;;;10.03;2.70;;;29.60;99.90;;;;;;4973821;28;20190;-67
2023/01/18 07:37:51;;;;;;;9.60;2.40;;;29.50;99.90;;;;;;4973760;28;20629;-68
2023/01/18 07:40:22;;;;;;;12.37;2.77;;;29.50;99.90;;;;;;4976144;28;20654;-67
2023/01/18 07:42:55;;;;;;;14.13;2.60;;;29.40;99.90;;;;;;4977462;28;20404;-73
2023/01/18 07:45:23;;;;;;;11.63;2.50;;;29.30;99.90;;;;;;4977152;28;20187;-67
2023/01/18 07:47:52;;;;;;;12.03;2.50;;;29.20;99.90;;;;;;4977132;28;20185;-67
2023/01/18 07:50:21;;;;;;;16.00;3.10;;;29.10;99.90;;;;;;4976947;28;20644;-67
2023/01/18 07:52:48;;;;;;;7.77;2.23;;;29.00;99.90;;;;;;4977000;28;20182;-67
2023/01/18 07:55:16;;;;;;;15.07;3.20;;;29.10;99.90;;;;;;4977042;28;20712;-77
2023/01/18 07:57:43;;;;;;;10.70;2.80;;;28.90;99.90;;;;;;4976867;28;20266;-66
2023/01/18 08:00:13;;;;;;;13.27;2.57;;;28.80;99.90;;;;;;4976961;28;20668;-67
2023/01/18 08:02:40;;;;;;;12.80;3.03;;;28.80;99.90;;;;;;4976925;28;20262;-69
2023/01/18 08:05:09;;;;;;;10.07;2.70;;;28.70;99.90;;;;;;4976648;28;20323;-66
2023/01/18 08:07:36;;;;;;;13.87;3.00;;;28.70;99.90;;;;;;4976553;28;20192;-66
2023/01/18 08:10:04;;;;;;;16.97;3.10;;;28.70;99.90;;;;;;4976769;28;20547;-75
2023/01/18 08:12:31;;;;;;;13.03;3.27;;;28.60;99.90;;;;;;4976701;28;20682;-67
2023/01/18 08:14:59;;;;;;;14.03;3.20;;;28.60;99.90;;;;;;4976599;28;20175;-67
2023/01/18 08:17:28;;;;;;;16.37;3.20;;;28.50;99.90;;;;;;4976333;28;20223;-68
2023/01/18 08:19:55;;;;;;;10.40;2.60;;;28.50;99.90;;;;;;4976312;28;20641;-66
2023/01/18 08:22:23;;;;;;;13.53;2.70;;;28.40;99.90;;;;;;4976424;28;20171;-69
2023/01/18 08:24:50;;;;;;;11.17;2.80;;;28.40;99.90;;;;;;4976182;28;20235;-69
2023/01/18 08:27:18;;;;;;;12.80;2.87;;;28.30;99.90;;;;;;4976384;28;20216;-69
2023/01/18 08:29:47;;;;;;;11.80;2.87;;;28.30;99.90;;;;;;4976255;28;20223;-67
2023/01/18 08:32:14;;;;;;;13.50;2.97;;;28.10;99.90;;;;;;4976317;28;20598;-66
2023/01/18 08:34:42;;;;;;;10.33;2.33;;;28.10;99.90;;;;;;4958884;28;20179;-66
2023/01/18 08:37:10;;;;;;;10.63;2.13;;;28.00;99.90;;;;;;4976316;28;20246;-66
2023/01/18 08:39:38;;;;;;;13.27;3.50;;;28.00;99.90;;;;;;4976126;28;20181;-67
2023/01/18 08:42:05;;;;;;;11.77;2.27;;;28.00;99.90;;;;;;4976159;28;20175;-66
2023/01/18 08:44:33;;;;;;;16.37;2.93;;;28.00;99.90;;;;;;4976125;28;20175;-69
2023/01/18 08:47:00;;;;;;;9.57;2.60;;;28.00;99.90;;;;;;4976186;28;20653;-69
2023/01/18 08:49:28;;;;;;;5.97;1.97;;;28.00;99.90;;;;;;4976077;28;20249;-69
2023/01/18 08:51:56;;;;;;;14.67;3.10;;;28.00;99.90;;;;;;4975136;28;20649;-66
2023/01/18 08:54:24;;;;;;;13.17;2.37;;;28.00;99.90;;;;;;4958679;28;20551;-66
2023/01/18 08:56:54;;;;;;;17.40;3.50;;;28.00;99.90;;;;;;4958695;28;20178;-67
2023/01/18 08:59:22;;;;;;;8.63;2.50;;;28.00;99.90;;;;;;4975843;28;20688;-67
2023/01/18 09:01:50;;;;;;;16.40;2.83;;;28.00;99.90;;;;;;4975842;28;20176;-67
2023/01/18 09:04:17;;;;;;;14.10;4.10;;;27.90;99.90;;;;;;4975760;28;20187;-67
2023/01/18 09:06:45;;;;;;;13.70;3.03;;;27.80;99.90;;;;;;4958412;28;20648;-66
2023/01/18 09:09:12;;;;;;;14.87;2.57;;;27.80;99.90;;;;;;4975653;28;20297;-67
2023/01/18 09:11:40;;;;;;;17.93;3.77;;;27.60;99.90;;;;;;4975497;28;20190;-68
2023/01/18 09:14:07;;;;;;;15.23;2.70;;;27.40;99.90;;;;;;4976010;28;20211;-67
2023/01/18 09:16:34;;;;;;;15.20;2.80;;;27.40;99.90;;;;;;4975526;28;20227;-67
2023/01/18 09:19:05;;;;;;;13.37;3.00;;;27.30;99.90;;;;;;4975685;28;20663;-67
2023/01/18 09:21:33;;;;;;;11.97;3.47;;;27.30;99.90;;;;;;4975728;28;20175;-66
2023/01/18 09:24:00;;;;;;;10.57;2.80;;;27.20;99.90;;;;;;4975601;28;20182;-66
2023/01/18 09:26:29;;;;;;;15.67;3.97;;;26.90;99.90;;;;;;4975555;28;20262;-66
2023/01/18 09:28:56;;;;;;;17.53;4.33;;;26.60;99.90;;;;;;4975451;28;20285;-66
2023/01/18 09:34:49;;;;;;;11.70;3.30;;;25.20;99.90;;;;;;4974783;28;20187;-67
2023/01/18 09:37:18;;;;;;;14.70;4.17;;;24.80;99.90;;;;;;4975281;28;20179;-67
2023/01/18 09:39:45;;;;;;;8.43;3.17;;;24.60;99.90;;;;;;4975395;28;20179;-66
2023/01/18 09:42:22;;;;;;;11.07;3.47;;;24.40;99.90;;;;;;4975068;28;20179;-68
2023/01/18 09:45:00;;;;;;;8.13;3.73;;;24.20;99.90;;;;;;4975083;28;20206;-67
2023/01/18 09:47:45;;;;;;;8.00;3.37;;;24.20;99.90;;;;;;4975397;28;20214;-67
2023/01/18 09:50:20;;;;;;;10.73;4.07;;;24.00;99.90;;;;;;4975239;28;20357;-66
2023/01/18 09:53:34;;;;;;;15.03;4.20;;;23.80;99.90;;;;;;4975709;28;20652;-66
2023/01/18 09:56:16;;;;;;;12.07;3.83;;;23.60;99.90;;;;;;4970058;28;20194;-66
2023/01/18 09:59:12;;;;;;;11.00;4.17;;;23.40;99.90;;;;;;4975514;28;20262;-67
2023/01/18 10:01:40;;;;;;;10.07;4.27;;;23.20;99.90;;;;;;4974734;28;20550;-66
2023/01/18 10:04:22;;;;;;;10.97;4.77;;;23.10;99.90;;;;;;4975103;28;20191;-67
2023/01/18 10:07:17;;;;;;;13.10;4.83;;;23.10;99.90;;;;;;4975417;28;20179;-66
2023/01/18 10:09:56;;;;;;;8.97;4.37;;;22.90;99.90;;;;;;4973195;28;20697;-67
2023/01/18 10:12:42;;;;;;;9.60;4.33;;;22.80;99.90;;;;;;4974957;28;20269;-67
2023/01/18 10:15:25;;;;;;;12.37;4.87;;;22.80;99.90;;;;;;4974670;28;20183;-67
2023/01/18 10:17:59;;;;;;;7.47;4.30;;;22.80;99.90;;;;;;4974650;28;20236;-66
2023/01/18 10:20:42;;;;;;;13.80;4.50;;;22.80;99.90;;;;;;4974755;28;20190;-66
2023/01/18 10:23:27;;;;;;;9.73;4.20;;;22.70;99.90;;;;;;4975696;28;20210;-67
2023/01/18 10:25:58;;;;;;;13.67;4.90;;;22.80;99.90;;;;;;4974759;28;20304;-67
2023/01/18 10:28:35;;;;;;;7.93;3.90;;;22.80;99.90;;;;;;4974706;28;20664;-67
2023/01/18 10:31:05;;;;;;;9.30;4.33;;;22.80;99.90;;;;;;4974710;28;20214;-66
2023/01/18 10:33:39;;;;;;;8.50;4.50;;;22.80;99.90;;;;;;4974564;28;20180;-67
2023/01/18 10:36:16;;;;;;;6.13;4.33;;;22.90;99.90;;;;;;4974655;28;20185;-67
2023/01/18 10:38:44;;;;;;;7.33;3.70;;;22.90;99.90;;;;;;4974343;28;20258;-67
2023/01/18 10:41:24;;;;;;;10.33;3.70;;;22.90;99.90;;;;;;4974449;28;20257;-67
2023/01/18 10:43:52;;;;;;;5.50;3.07;;;22.90;99.90;;;;;;4974396;28;20270;-67
2023/01/18 10:46:20;;;;;;;7.33;3.10;;;22.90;99.90;;;;;;4957064;28;20268;-67
2023/01/18 10:48:50;;;;;;;7.73;2.90;;;22.90;99.90;;;;;;4974317;28;20179;-66
2023/01/18 10:51:48;;;;;;;8.30;3.30;;;22.90;99.90;;;;;;4974233;28;20175;-67
2023/01/18 10:54:18;;;;;;;4.73;2.63;;;22.90;99.90;;;;;;4952748;28;20187;-67
2023/01/18 10:56:46;;;;;;;5.80;2.70;;;23.00;99.90;;;;;;4956778;28;20551;-67
2023/01/18 10:59:28;;;;;;;5.53;3.23;;;23.10;99.90;;;;;;4974309;28;20184;-67
2023/01/18 11:01:57;;;;;;;4.23;2.90;;;23.30;99.90;;;;;;4974084;28;20183;-67
2023/01/18 11:04:30;;;;;;;5.60;2.90;;;23.30;99.90;;;;;;4974148;28;20173;-67
2023/01/18 11:07:05;;;;;;;7.93;3.33;;;23.30;99.90;;;;;;4973231;28;20198;-73
2023/01/18 11:09:42;;;;;;;5.30;2.60;;;23.40;99.90;;;;;;4964325;28;20611;-72
2023/01/18 11:12:35;;;;;;;4.47;2.63;;;23.30;99.90;;;;;;4973203;28;20183;-68
2023/01/18 11:15:15;;;;;;;5.97;2.83;;;23.30;99.90;;;;;;4976131;28;20210;-68
2023/01/18 11:17:56;;;;;;;7.03;3.07;;;23.20;99.90;;;;;;4977637;28;20261;-67
2023/01/18 11:20:34;;;;;;;5.77;2.43;;;23.20;99.90;;;;;;4976976;28;20230;-73
2023/01/18 11:23:06;;;;;;;5.23;2.20;;;23.10;99.90;;;;;;4976454;28;20198;-69
2023/01/18 11:26:11;;;;;;;5.33;2.80;;;23.00;99.90;;;;;;4977100;28;20172;-73
2023/01/18 11:28:59;;;;;;;7.77;2.67;;;23.00;99.90;;;;;;4933643;29;20221;-71
2023/01/18 11:31:44;;;;;;;5.90;2.73;;;23.00;99.90;;;;;;4974844;28;20189;-68
2023/01/18 11:34:36;;;;;;;5.77;2.60;;;23.00;99.90;;;;;;4976892;28;20179;-68
2023/01/18 11:37:24;;;;;;;10.70;2.93;;;22.90;99.90;;;;;;4976990;28;20168;-68
2023/01/18 11:39:51;;;;;;;7.23;2.90;;;22.90;99.90;;;;;;4968352;28;20644;-68
2023/01/18 11:42:34;;;;;;;5.50;2.93;;;22.90;99.90;;;;;;4976466;28;20242;-69
2023/01/18 11:45:31;;;;;;;6.33;2.90;;;23.00;99.90;;;;;;4976626;28;20183;-68
2023/01/18 11:48:13;;;;;;;6.43;3.50;;;22.90;99.90;;;;;;4976048;28;20660;-72
2023/01/18 11:50:51;;;;;;;6.77;2.80;;;23.00;99.90;;;;;;4968505;28;20261;-68
2023/01/18 11:53:35;;;;;;;9.30;2.90;;;22.80;99.90;;;;;;4976701;28;20260;-70
2023/01/18 11:56:38;;;;;;;7.37;2.80;;;22.90;99.90;;;;;;4976575;28;20668;-69
2023/01/18 11:59:21;;;;;;;6.47;2.90;;;22.80;99.90;;;;;;4971117;28;20199;-68
2023/01/18 12:02:22;;;;;;;8.43;3.13;;;22.80;99.90;;;;;;4976511;28;20193;-68
2023/01/18 12:05:01;;;;;;;5.47;2.97;;;22.90;99.90;;;;;;4975971;28;20186;-68
2023/01/18 12:07:35;;;;;;;7.13;3.10;;;22.90;99.90;;;;;;4976070;28;20186;-69
2023/01/18 12:10:04;;;;;;;7.50;2.70;;;22.90;99.90;;;;;;4975113;28;20657;-68
2023/01/18 12:12:55;;;;;;;5.30;3.10;;;22.90;99.90;;;;;;4976403;28;20266;-71
2023/01/18 12:15:40;;;;;;;7.10;2.80;;;22.90;99.90;;;;;;4975796;28;20187;-72
2023/01/18 12:18:16;;;;;;;7.83;2.87;;;22.90;99.90;;;;;;4967760;28;20238;-68
2023/01/18 12:20:58;;;;;;;5.93;2.53;;;22.80;99.90;;;;;;4975888;28;20270;-69
2023/01/18 12:23:41;;;;;;;4.47;2.73;;;23.00;99.90;;;;;;4976381;28;20198;-72
2023/01/18 12:26:59;;;;;;;3.73;2.37;;;23.00;99.90;;;;;;4975301;28;20238;-68
2023/01/18 12:29:32;;;;;;;6.33;2.70;;;23.00;99.90;;;;;;4954091;29;20694;-68
2023/01/18 12:32:17;;;;;;;3.57;2.20;;;23.00;99.90;;;;;;4974640;28;20249;-68
2023/01/18 12:35:22;;;;;;;6.37;2.90;;;23.00;99.90;;;;;;4975601;28;20683;-68
2023/01/18 12:38:07;;;;;;;4.53;2.53;;;23.00;99.90;;;;;;4975337;28;20187;-68
2023/01/18 12:40:50;;;;;;;3.83;2.07;;;23.00;99.90;;;;;;4974890;28;20171;-71
2023/01/18 12:43:39;;;;;;;4.87;2.63;;;23.00;99.90;;;;;;4975589;28;20332;-68
2023/01/18 12:46:38;;;;;;;4.53;2.20;;;23.00;99.90;;;;;;4975604;28;20186;-68
2023/01/18 12:49:17;;;;;;;7.87;2.47;;;23.00;99.90;;;;;;4956652;29;20550;-69
2023/01/18 12:52:05;;;;;;;3.33;2.80;;;22.90;99.90;;;;;;4969435;28;20546;-69
2023/01/18 12:55:05;;;;;;;5.73;2.90;;;22.90;99.90;;;;;;4975178;28;20242;-69
2023/01/18 12:57:34;;;;;;;5.77;3.10;;;23.00;99.90;;;;;;4964022;28;20657;-73
2023/01/18 13:00:18;;;;;;;6.73;2.50;;;22.90;99.90;;;;;;4974288;28;20538;-68
2023/01/18 13:02:50;;;;;;;5.00;2.80;;;22.90;99.90;;;;;;4974859;28;20191;-68
2023/01/18 13:05:34;;;;;;;5.93;2.63;;;22.90;99.90;;;;;;4974636;28;20219;-72
2023/01/18 13:08:29;;;;;;;5.40;2.90;;;22.90;99.90;;;;;;4967429;28;20535;-69
2023/01/18 13:11:05;;;;;;;7.00;2.73;;;22.80;99.90;;;;;;4956096;29;20263;-68
2023/01/18 13:13:33;;;;;;;4.67;2.80;;;22.80;99.90;;;;;;4969239;28;20185;-72
2023/01/18 13:16:12;;;;;;;10.80;2.90;;;22.80;99.90;;;;;;4974048;28;20636;-69
2023/01/18 13:18:56;;;;;;;5.10;3.07;;;22.80;99.90;;;;;;4974701;28;20289;-71
2023/01/18 13:21:42;;;;;;;8.20;3.20;;;22.80;99.90;;;;;;4969015;28;20652;-69
2023/01/18 13:24:53;;;;;;;4.87;2.93;;;22.70;99.90;;;;;;4959305;28;20187;-68
2023/01/18 13:27:20;;;;;;;7.07;3.43;;;22.80;99.90;;;;;;4963704;28;20194;-68
2023/01/18 13:29:48;;;;;;;4.57;3.30;;;22.70;99.90;;;;;;4974683;28;20206;-68
2023/01/18 13:32:23;;;;;;;9.63;3.37;;;22.70;99.90;;;;;;4974421;28;20187;-68
2023/01/18 13:35:14;;;;;;;6.63;3.90;;;22.60;99.90;;;;;;4975024;28;20647;-68
2023/01/18 13:37:53;;;;;;;6.40;3.67;;;22.70;99.90;;;;;;4965642;28;20237;-68
2023/01/18 13:40:27;;;;;;;7.27;3.97;;;22.70;99.90;;;;;;4974406;28;20178;-68
2023/01/18 13:42:54;;;;;;;5.50;3.43;;;22.70;99.90;;;;;;4974691;28;20214;-71
2023/01/18 13:45:27;;;;;;;7.30;3.90;;;22.70;99.90;;;;;;4974931;28;20184;-68
2023/01/18 13:47:56;;;;;;;4.27;3.87;;;22.60;99.90;;;;;;4974327;28;20179;-68
2023/01/18 13:50:38;;;;;;;6.20;4.00;;;22.70;99.90;;;;;;4974642;28;20230;-68
2023/01/18 13:53:15;;;;;;;7.57;4.37;;;22.70;99.90;;;;;;4974765;28;20175;-68
2023/01/18 13:56:02;;;;;;;9.97;4.27;;;22.60;99.90;;;;;;4974783;28;20183;-68
2023/01/18 13:58:32;;;;;;;6.50;4.00;;;22.60;99.90;;;;;;4954917;29;20202;-68
2023/01/18 14:01:02;;;;;;;6.73;4.23;;;22.60;99.90;;;;;;4955551;29;20621;-68